This is the latest recevied weather packets stored in our database for station/object YN7ZGH-13. If no packets are shown the sender has not sent any weather packets the latest 10 day(s).
| Time | Temp. | Humidity | Pressure | Rain* | Wind** | Luminosity | Snow |
|---|---|---|---|---|---|---|---|
| 1777783548 | 27.78° C | 72% | 1012 hPa | 0 mm | - | - | - |
| 1777782947 | 27.78° C | 71% | 1012 hPa | 0 mm | - | - | - |
| 1777780516 | 27.78° C | 70% | 1012 hPa | 0 mm | - | - | - |
| 1777779916 | 27.78° C | 69% | 1012 hPa | 0 mm | - | - | - |
| 1777779316 | 27.78° C | 68% | 1012 hPa | 0 mm | - | - | - |
| 1777778715 | 27.78° C | 67% | 1012 hPa | 0 mm | - | - | - |
| 1777778115 | 27.78° C | 65% | 1012 hPa | 0 mm | - | - | - |
| 1777777514 | 27.78° C | 65% | 1012 hPa | 0 mm | - | - | - |
| 1777775083 | 27.78° C | 63% | 1011 hPa | 0 mm | - | - | - |
| 1777770823 | 32.22° C | 58% | 1010 hPa | 0 mm | - | - | - |
| 1777768395 | 31.67° C | 58% | 1009 hPa | 0 mm | - | - | - |
| 1777765962 | 31.67° C | 58% | 1008 hPa | 0 mm | - | - | - |
| 1777765361 | 31.67° C | 58% | 1008 hPa | 0 mm | - | - | - |
| 1777764761 | 34.44° C | 46% | 1008 hPa | 0 mm | - | - | - |
| 1777764160 | 35° C | 42% | 1007 hPa | 0 mm | - | - | - |
| 1777763560 | 35° C | 42% | 1007 hPa | 0 mm | - | - | - |
| 1777762959 | 35° C | 42% | 1007 hPa | 0 mm | - | - | - |
| 1777762359 | 35° C | 42% | 1007 hPa | 0 mm | - | - | - |
| 1777761759 | 35° C | 42% | 1007 hPa | 0 mm | - | - | - |
| 1777761158 | 36.67° C | 43% | 1007 hPa | 0 mm | - | - | - |
| 1777760557 | 36.67° C | 43% | 1007 hPa | 0 mm | - | - | - |
| 1777759957 | 36.11° C | 43% | 1007 hPa | 0 mm | - | - | - |
| 1777757526 | 35.56° C | 43% | 1006 hPa | 0 mm | - | - | - |
| 1777756926 | 35.56° C | 43% | 1007 hPa | 0 mm | - | - | - |
| 1777756326 | 35.56° C | 43% | 1007 hPa | 0 mm | - | - | - |
* Rain latest hour (hover to see other rain measurements)
** Current wind speed in m/s (hover to see current wind gust speed)